TAF PMDY
PMDY 081730Z 0818/0918 04017G25KT P6SM VCSH BKN028 OVC070 TEMPO 0818/0821 SCT025 BKN035 FM090300 03020G29KT P6SM VCSH FEW015 BKN025 BKN040=
METAR PMDY
WC PMDY
WS PMDY
WV PMDY